Weather reports worldwide

Advertisment
Glasgow/Intl, United Kingdom (3140): temperature & dewpoint: 19.06.2017 23:00:00 - 25.06.2017 23:00:00 (BST)Glasgow/Intl, United Kingdom (3140): wind speed: 19.06.2017 23:00:00 - 25.06.2017 23:00:00 (BST)Glasgow/Intl, United Kingdom (3140): wind direction: 19.06.2017 23:00:00 - 25.06.2017 23:00:00 (BST)Glasgow/Intl, United Kingdom (3140): visibility: 19.06.2017 23:00:00 - 25.06.2017 23:00:00 (BST)
Date & Time tt [°C] td [°C] ff [km/h] ff [kn] dd vv [km]
25.06.2017 23:00:00 12,0 8,0 9 5 WSW 10
25.06.2017 22:00:00 11,0 7,0 15 8 WSW 10
25.06.2017 21:00:00 13,0 8,0 18 10 W 10
25.06.2017 20:00:00 13,0 8,0 16 9 W 10
25.06.2017 19:00:00 14,0 8,0 26 14 W 10
25.06.2017 18:00:00 16,0 9,0 22 12 W 10
25.06.2017 17:00:00 14,0 8,0 26 14 WNW 10
25.06.2017 16:00:00 14,0 9,0 24 13 W 10
25.06.2017 15:00:00 14,0 8,0 29 16 W 10
25.06.2017 14:00:00 15,0 6,0 31 17 W 10
25.06.2017 13:00:00 15,0 7,0 29 16 W 10
25.06.2017 12:00:00 14,0 7,0 26 14 W 10
25.06.2017 11:00:00 14,0 7,0 29 16 WSW 10
25.06.2017 10:00:00 15,0 7,0 26 14 W 10
25.06.2017 09:00:00 14,0 8,0 24 13 W 10
25.06.2017 08:00:00 12,0 8,0 18 10 W 10
25.06.2017 07:00:00 11,0 7,0 16 9 WSW 10
25.06.2017 06:00:00 11,0 7,0 16 9 WSW 10
25.06.2017 05:00:00 10,0 7,0 26 14 WSW 10
25.06.2017 04:00:00 11,0 8,0 21 11 WSW 10
25.06.2017 03:00:00 11,0 8,0 16 9 WSW 10
25.06.2017 02:00:00 11,0 7,0 13 7 WSW 10
25.06.2017 01:00:00 10,0 7,0 24 13 W 10
25.06.2017 00:00:00 11,0 8,0 29 16 W 10
24.06.2017 23:00:00 11,0 8,0 35 19 WSW 10
24.06.2017 22:00:00 11,0 7,0 39 21 WSW 10
24.06.2017 21:00:00 11,0 8,0 37 20 W 10
24.06.2017 20:00:00 13,0 8,0 34 18 W 10
24.06.2017 19:00:00 13,0 8,0 34 18 WSW 10
24.06.2017 18:00:00 13,0 8,0 39 21 WSW 10
24.06.2017 17:00:00 13,0 8,0 39 21 W 10
24.06.2017 16:00:00 14,0 7,0 35 19 WSW 10
24.06.2017 15:00:00 15,0 8,0 42 23 W 10
24.06.2017 14:00:00 15,0 7,0 41 22 W 10
24.06.2017 13:00:00 14,0 7,0 31 17 W 10
24.06.2017 12:00:00 13,0 7,0 26 14 WSW 10
24.06.2017 11:00:00 13,0 7,0 31 17 WSW 10
24.06.2017 10:00:00 12,0 8,0 26 14 WSW 10
24.06.2017 09:00:00 13,0 8,0 29 16 SW 10
24.06.2017 08:00:00 12,0 7,0 22 12 SW 10
24.06.2017 07:00:00 12,0 6,0 28 15 WSW 10
24.06.2017 06:00:00 12,0 7,0 22 12 WSW 10
24.06.2017 05:00:00 11,0 7,0 18 10 WSW 10
24.06.2017 04:00:00 12,0 8,0 26 14 WSW 10
24.06.2017 03:00:00 11,0 8,0 16 9 SW 10
24.06.2017 02:00:00 12,0 8,0 15 8 SSW 10
24.06.2017 01:00:00 12,0 8,0 15 8 SSW 10
24.06.2017 00:00:00 12,0 7,0 18 10 WSW 10
23.06.2017 23:00:00 12,0 7,0 26 14 WSW 10
23.06.2017 22:00:00 13,0 7,0 15 8 WSW 10
23.06.2017 21:00:00 13,0 7,0 15 8 W 10
23.06.2017 20:00:00 14,0 7,0 18 10 W 10
23.06.2017 19:00:00 15,0 7,0 28 15 W 10
23.06.2017 18:00:00 16,0 9,0 28 15 W 10
23.06.2017 17:00:00 16,0 10,0 28 15 W 10
23.06.2017 16:00:00 17,0 10,0 31 17 W 10
23.06.2017 15:00:00 17,0 10,0 34 18 W 10
23.06.2017 14:00:00 17,0 11,0 35 19 W 10
23.06.2017 13:00:00 15,0 11,0 26 14 W 10
23.06.2017 12:00:00 15,0 10,0 15 8 W 10
23.06.2017 11:00:00 16,0 12,0 31 17 W 10
23.06.2017 10:00:00 15,0 12,0 42 23 W 10
23.06.2017 09:00:00 15,0 14,0 42 23 SW 3,6
23.06.2017 08:00:00 14,0 13,0 48 26 SW 10
23.06.2017 07:00:00 14,0 13,0 42 23 SW 3,8
23.06.2017 06:00:00 13,0 12,0 41 22 SSW 3,8
23.06.2017 05:00:00 13,0 12,0 35 19 SSW 3,5
23.06.2017 04:00:00 13,0 12,0 37 20 SSW 10
23.06.2017 03:00:00 13,0 12,0 31 17 SSW 9
23.06.2017 02:00:00 13,0 12,0 24 13 SSW 7
23.06.2017 01:00:00 14,0 11,0 21 11 SSW 10
23.06.2017 00:00:00 13,0 11,0 16 9 SSW 10
22.06.2017 23:00:00 13,0 11,0 18 10 SW 10
22.06.2017 22:00:00 14,0 11,0 18 10 SW 10
22.06.2017 21:00:00 14,0 11,0 11 6 WSW 10
22.06.2017 20:00:00 15,0 10,0 15 8 WSW 10
22.06.2017 19:00:00 16,0 10,0 15 8 W 10
22.06.2017 18:00:00 16,0 11,0 18 10 WSW 10
22.06.2017 17:00:00 16,0 11,0 21 11 WSW 10
22.06.2017 16:00:00 17,0 11,0 16 9 W 10
22.06.2017 15:00:00 17,0 11,0 22 12 W 10
22.06.2017 14:00:00 16,0 11,0 16 9 W 10
22.06.2017 13:00:00 16,0 11,0 15 8 WNW 10
22.06.2017 12:00:00 16,0 10,0 13 7 W 10
22.06.2017 11:00:00 15,0 11,0 16 9 W 10
22.06.2017 10:00:00 15,0 12,0 18 10 W 10
22.06.2017 09:00:00 14,0 12,0 18 10 W 10
22.06.2017 08:00:00 14,0 12,0 11 6 W 10
22.06.2017 07:00:00 14,0 13,0 9 5 W 10
22.06.2017 06:00:00 13,0 12,0 4 2 - 10
22.06.2017 05:00:00 12,0 11,0 9 5 WSW 10
22.06.2017 04:00:00 13,0 12,0 9 5 WSW 10
22.06.2017 03:00:00 15,0 14,0 15 8 W 10
22.06.2017 02:00:00 15,0 14,0 5 3 - 10
22.06.2017 01:00:00 16,0 15,0 11 6 W 10
22.06.2017 00:00:00 17,0 16,0 11 6 W 3,8
21.06.2017 23:00:00 17,0 16,0 5 3 - 5
21.06.2017 22:00:00 17,0 16,0 5 3 - 5
21.06.2017 21:00:00 17,0 16,0 2 1 N 7
21.06.2017 20:00:00 18,0 17,0 4 2 - 9
21.06.2017 19:00:00 19,0 17,0 9 5 NE 10
21.06.2017 18:00:00 19,0 18,0 8 4 N 10
21.06.2017 17:00:00 20,0 16,0 2 1 - 10
21.06.2017 16:00:00 20,0 16,0 8 4 ESE 10
21.06.2017 15:00:00 18,0 15,0 8 4 NE 10
21.06.2017 14:00:00 18,0 15,0 4 2 - 10
21.06.2017 13:00:00 17,0 14,0 11 6 ENE 10
21.06.2017 12:00:00 16,0 14,0 15 8 ENE 10
21.06.2017 11:00:00 16,0 14,0 9 5 ENE 10
21.06.2017 10:00:00 15,0 13,0 11 6 NE 10
21.06.2017 09:00:00 15,0 13,0 16 9 E 10
21.06.2017 08:00:00 15,0 13,0 11 6 E 10
21.06.2017 07:00:00 14,0 12,0 15 8 ENE 10
21.06.2017 06:00:00 14,0 13,0 11 6 E 10
21.06.2017 05:00:00 14,0 13,0 15 8 ENE 10
21.06.2017 04:00:00 14,0 12,0 9 5 ENE 10
21.06.2017 03:00:00 14,0 12,0 13 7 ENE 10
21.06.2017 02:00:00 15,0 12,0 13 7 E 10
21.06.2017 01:00:00 15,0 12,0 18 10 ENE 10
21.06.2017 00:00:00 15,0 12,0 16 9 ENE 10
20.06.2017 23:00:00 15,0 12,0 18 10 E 10
20.06.2017 22:00:00 16,0 12,0 16 9 E 10
20.06.2017 21:00:00 17,0 12,0 24 13 ENE 10
20.06.2017 20:00:00 19,0 12,0 22 12 ENE 10
20.06.2017 19:00:00 20,0 12,0 21 11 ENE 10
20.06.2017 18:00:00 21,0 13,0 13 7 ENE 10
20.06.2017 17:00:00 21,0 13,0 15 8 ENE 10
20.06.2017 16:00:00 21,0 13,0 13 7 NE 10
20.06.2017 15:00:00 20,0 13,0 15 8 NE 10
20.06.2017 14:00:00 19,0 12,0 15 8 NNE 10
20.06.2017 13:00:00 19,0 11,0 11 6 NNE 10
20.06.2017 12:00:00 18,0 12,0 13 7 NE 10
20.06.2017 11:00:00 17,0 12,0 11 6 NE 10
20.06.2017 10:00:00 15,0 10,0 9 5 NNE 10
20.06.2017 09:00:00 13,0 9,0 5 3 - 10
20.06.2017 08:00:00 12,0 8,0 4 2 - 10
20.06.2017 07:00:00 11,0 8,0 2 1 - 10
20.06.2017 06:00:00 7,0 6,0 4 2 WSW 10
20.06.2017 05:00:00 6,0 5,0 8 4 WSW 10
20.06.2017 04:00:00 5,0 4,0 11 6 SW 10
20.06.2017 03:00:00 7,0 6,0 11 6 WSW 10
20.06.2017 02:00:00 7,0 6,0 11 6 SW 10
20.06.2017 01:00:00 11,0 8,0 5 3 - 10
20.06.2017 00:00:00 11,0 9,0 5 3 - 10
19.06.2017 23:00:00 12,0 9,0 9 5 WSW 10

tt = temperature
td = dewpoint
ff = wind speed
dd = wind direction
vv = visibility

Next stations